createdAt,value
2022-10-05T00:00:12.749Z,160.40
2022-10-05T00:05:36.308Z,151.40
2022-10-05T00:10:43.819Z,153.60
2022-10-05T00:15:48.345Z,155.40
2022-10-05T00:20:51.887Z,149.30
2022-10-05T00:25:57.528Z,143.80
2022-10-05T00:31:01.410Z,138.70
2022-10-05T00:36:07.665Z,141.20
2022-10-05T00:41:41.275Z,135.90
2022-10-05T00:47:33.306Z,131.70
2022-10-05T00:53:15.707Z,126.40
2022-10-05T00:58:35.300Z,122.50
2022-10-05T01:04:00.612Z,127.20
2022-10-05T01:09:17.173Z,110.70
2022-10-05T01:14:34.870Z,117.40
2022-10-05T01:20:11.871Z,105.20
2022-10-05T01:25:24.283Z,110.10
2022-10-05T01:30:33.841Z,110.10
2022-10-05T01:36:11.341Z,105.90
2022-10-05T01:41:37.376Z,106.70
2022-10-05T01:47:27.863Z,100.60
2022-10-05T01:52:46.712Z,101.30
2022-10-05T01:58:11.397Z,90.20
2022-10-05T02:03:22.435Z,80.60
2022-10-05T02:08:35.306Z,75.90
2022-10-05T02:13:44.344Z,67.20
2022-10-05T02:18:57.651Z,59.50
2022-10-05T02:24:11.407Z,55.40
2022-10-05T02:29:19.123Z,53.60
2022-10-05T02:34:30.537Z,56.80
2022-10-05T02:40:20.196Z,58.80
2022-10-05T02:45:36.960Z,54.30
2022-10-05T02:51:01.622Z,56.00
2022-10-05T02:56:29.403Z,52.90
2022-10-05T03:01:51.992Z,53.60
2022-10-05T03:07:10.105Z,50.80
2022-10-05T03:12:25.606Z,55.10
2022-10-05T03:17:37.615Z,51.50
2022-10-05T03:22:51.267Z,53.00
2022-10-05T03:28:26.472Z,54.90
2022-10-05T03:33:49.080Z,48.80
2022-10-05T03:39:23.391Z,50.80
2022-10-05T03:44:55.569Z,49.30
2022-10-05T03:50:16.580Z,46.80
2022-10-05T03:55:26.545Z,47.90
2022-10-05T04:00:32.549Z,43.00
2022-10-05T04:05:59.485Z,45.60
2022-10-05T04:11:22.753Z,42.20
2022-10-05T04:16:35.384Z,43.90
2022-10-05T04:21:47.711Z,38.90
2022-10-05T04:26:56.062Z,45.20
2022-10-05T04:32:25.260Z,37.30
2022-10-05T04:37:36.515Z,41.30
2022-10-05T04:43:16.141Z,40.00
2022-10-05T04:48:45.185Z,37.00
2022-10-05T04:54:18.595Z,37.90
2022-10-05T04:59:45.442Z,34.90
2022-10-05T05:05:17.110Z,39.30
2022-10-05T05:10:48.854Z,31.90
2022-10-05T05:16:08.994Z,34.00
2022-10-05T05:22:01.028Z,33.70
2022-10-05T05:27:51.381Z,27.90
2022-10-05T05:33:19.736Z,35.60
2022-10-05T05:38:44.884Z,35.70
2022-10-05T05:44:28.216Z,32.30
2022-10-05T05:50:01.815Z,34.70
2022-10-05T05:55:34.606Z,30.20
2022-10-05T06:00:44.676Z,36.30
2022-10-05T06:06:02.020Z,33.30
2022-10-05T06:11:28.107Z,36.70
2022-10-05T06:16:41.241Z,33.50
2022-10-05T06:21:48.420Z,32.70
2022-10-05T06:27:09.515Z,35.60
2022-10-05T06:32:42.915Z,27.00
2022-10-05T06:38:02.997Z,29.40
2022-10-05T06:43:34.983Z,27.20
2022-10-05T06:49:29.773Z,29.90
2022-10-05T06:55:18.526Z,27.90
2022-10-05T07:00:33.302Z,23.60
2022-10-05T07:05:40.153Z,22.50
2022-10-05T07:11:05.928Z,23.00
2022-10-05T07:16:36.587Z,28.80
2022-10-05T07:21:54.336Z,25.90
2022-10-05T07:27:03.768Z,27.80
2022-10-05T07:32:29.095Z,22.40
2022-10-05T07:37:55.227Z,24.80
2022-10-05T07:43:14.913Z,21.60
2022-10-05T07:48:24.665Z,19.10
2022-10-05T07:59:08.203Z,20.50
2022-10-05T08:04:19.950Z,21.30
2022-10-05T08:09:36.374Z,19.60
2022-10-05T08:14:53.299Z,22.40
2022-10-05T08:20:03.418Z,20.20
2022-10-05T08:25:18.249Z,26.10
2022-10-05T08:30:21.771Z,23.30
2022-10-05T08:35:34.500Z,21.80
2022-10-05T08:40:47.027Z,29.80
2022-10-05T08:45:50.724Z,23.30
2022-10-05T08:51:08.088Z,18.30
2022-10-05T08:56:22.284Z,20.40
2022-10-05T09:01:56.326Z,25.20
2022-10-05T09:07:10.124Z,19.50
2022-10-05T09:12:49.258Z,22.20
2022-10-05T09:18:30.750Z,17.20
2022-10-05T09:23:45.581Z,17.10
2022-10-05T09:29:30.078Z,23.40
2022-10-05T09:35:28.657Z,28.20
2022-10-05T09:41:17.330Z,17.50
2022-10-05T09:46:34.271Z,18.50
2022-10-05T09:52:06.487Z,15.20
2022-10-05T09:57:25.690Z,18.80
2022-10-05T10:02:39.084Z,17.30
2022-10-05T10:08:05.477Z,15.30
2022-10-05T10:13:35.399Z,15.10
2022-10-05T10:19:13.218Z,14.30
2022-10-05T10:24:41.586Z,15.30
2022-10-05T10:30:04.141Z,15.20
2022-10-05T10:35:20.148Z,13.30
2022-10-05T10:40:35.437Z,13.90
2022-10-05T10:46:08.146Z,13.40
2022-10-05T10:51:27.430Z,13.60
2022-10-05T10:57:00.458Z,11.10
2022-10-05T11:02:22.288Z,14.80
2022-10-05T11:07:41.411Z,11.80
2022-10-05T11:13:27.056Z,15.50
2022-10-05T11:18:30.922Z,11.90
2022-10-05T11:24:11.903Z,13.10
2022-10-05T11:29:27.289Z,10.40
2022-10-05T11:34:55.683Z,9.10
2022-10-05T11:40:46.270Z,11.80
2022-10-05T11:46:00.880Z,11.30
2022-10-05T11:51:41.816Z,12.20
2022-10-05T11:57:18.496Z,16.50
2022-10-05T12:02:50.140Z,13.60
2022-10-05T12:07:59.627Z,11.30
2022-10-05T12:13:23.195Z,16.30
2022-10-05T12:18:32.943Z,13.00
2022-10-05T12:23:39.545Z,14.70
2022-10-05T12:29:03.942Z,14.60
2022-10-05T12:34:18.414Z,15.40
2022-10-05T12:39:45.676Z,14.50
2022-10-05T12:45:11.200Z,21.70
2022-10-05T12:50:42.430Z,11.20
2022-10-05T12:55:56.210Z,9.00
2022-10-05T13:01:06.429Z,11.50
2022-10-05T13:06:46.229Z,12.80
2022-10-05T13:12:04.153Z,11.90
2022-10-05T13:17:27.161Z,9.90
2022-10-05T13:22:39.607Z,21.70
2022-10-05T13:28:18.718Z,16.80
2022-10-05T13:33:23.344Z,10.80
2022-10-05T13:38:34.771Z,14.60
2022-10-05T13:44:20.738Z,13.60
2022-10-05T13:49:29.672Z,11.20
2022-10-05T13:55:15.618Z,16.50
2022-10-05T14:00:27.045Z,18.70
2022-10-05T14:05:38.131Z,12.60
2022-10-05T14:10:50.034Z,12.70
2022-10-05T14:16:14.604Z,9.50
2022-10-05T14:21:50.138Z,13.90
2022-10-05T14:26:57.275Z,12.60
2022-10-05T14:32:23.338Z,12.20
2022-10-05T14:37:53.502Z,12.50
2022-10-05T14:43:21.421Z,8.50
2022-10-05T14:48:53.235Z,14.30
2022-10-05T14:54:15.483Z,13.20
2022-10-05T14:59:40.506Z,9.60
2022-10-05T15:05:04.319Z,13.70
2022-10-05T15:10:50.372Z,14.50
2022-10-05T15:16:05.188Z,7.90
2022-10-05T15:21:24.423Z,7.20
2022-10-05T15:26:54.867Z,7.70
2022-10-05T15:32:21.412Z,9.20
2022-10-05T15:37:43.773Z,8.50
2022-10-05T15:42:53.663Z,8.60
2022-10-05T15:48:25.461Z,6.50
2022-10-05T15:53:46.822Z,12.00
2022-10-05T15:58:59.749Z,7.20
2022-10-05T16:04:16.232Z,5.70
2022-10-05T16:09:46.187Z,7.50
2022-10-05T16:15:07.086Z,8.50
2022-10-05T16:20:29.258Z,7.50
2022-10-05T16:26:03.184Z,7.00
2022-10-05T16:31:37.799Z,6.70
2022-10-05T16:37:10.067Z,7.60
2022-10-05T16:42:47.232Z,7.30
2022-10-05T16:48:31.292Z,7.60
2022-10-05T16:53:43.118Z,7.20
2022-10-05T16:59:18.264Z,6.00
2022-10-05T17:04:49.412Z,6.00
2022-10-05T17:10:36.012Z,6.30
2022-10-05T17:16:09.967Z,5.80
2022-10-05T17:21:35.244Z,8.60
2022-10-05T17:26:56.879Z,7.20
2022-10-05T17:32:15.446Z,5.50
2022-10-05T17:37:35.711Z,5.70
2022-10-05T17:42:42.885Z,7.50
2022-10-05T17:48:09.905Z,5.50
2022-10-05T17:53:58.442Z,6.30
2022-10-05T17:59:13.269Z,7.30
2022-10-05T18:04:35.903Z,6.10
2022-10-05T18:10:00.534Z,8.50
2022-10-05T18:15:16.609Z,5.80
2022-10-05T18:20:28.115Z,7.50
2022-10-05T18:25:56.385Z,5.10
2022-10-05T18:31:32.496Z,5.70
2022-10-05T18:36:52.737Z,5.50
2022-10-05T18:42:31.593Z,4.70
2022-10-05T18:48:14.713Z,5.00
2022-10-05T18:53:48.355Z,4.20
2022-10-05T18:59:40.794Z,4.90
2022-10-05T19:05:09.166Z,5.60
2022-10-05T19:10:51.638Z,4.60
2022-10-05T19:16:20.049Z,5.30
2022-10-05T19:21:56.512Z,7.00
2022-10-05T19:27:19.032Z,4.60
2022-10-05T19:32:56.091Z,4.60
2022-10-05T19:38:29.956Z,4.80
2022-10-05T19:43:36.955Z,4.20
2022-10-05T19:48:45.943Z,3.70
2022-10-05T19:53:51.744Z,4.30
2022-10-05T19:58:59.900Z,4.00
2022-10-05T20:04:06.284Z,4.30
2022-10-05T20:09:21.707Z,4.70
2022-10-05T20:14:34.127Z,4.00
2022-10-05T20:20:11.700Z,4.30
2022-10-05T20:25:18.186Z,3.40
2022-10-05T20:30:32.863Z,4.90
2022-10-05T20:35:36.490Z,4.70
2022-10-05T20:40:40.825Z,4.50
2022-10-05T20:45:44.653Z,4.00
2022-10-05T20:50:48.384Z,4.40
2022-10-05T20:55:52.620Z,3.70
2022-10-05T21:01:30.666Z,3.90
2022-10-05T21:06:45.176Z,4.40
2022-10-05T21:11:57.228Z,5.40
2022-10-05T21:17:02.231Z,3.60
2022-10-05T21:22:10.112Z,4.60
2022-10-05T21:27:13.611Z,3.90
2022-10-05T21:32:17.128Z,3.90
2022-10-05T21:37:20.545Z,4.40
2022-10-05T21:42:25.135Z,4.60
2022-10-05T21:47:31.392Z,4.70
2022-10-05T21:52:36.332Z,4.00
2022-10-05T21:57:41.699Z,3.80
2022-10-05T22:02:47.109Z,4.00
2022-10-05T22:07:52.107Z,4.00
2022-10-05T22:13:00.918Z,4.40
2022-10-05T22:18:04.990Z,4.20
2022-10-05T22:23:08.608Z,5.00
2022-10-05T22:28:17.255Z,4.80
2022-10-05T22:33:21.886Z,5.40
2022-10-05T22:38:30.928Z,4.00
2022-10-05T22:43:36.505Z,5.20
2022-10-05T22:48:41.153Z,3.80
2022-10-05T22:53:45.289Z,4.10
2022-10-05T22:58:48.909Z,3.70
2022-10-05T23:03:52.430Z,4.30
2022-10-05T23:08:55.950Z,4.00
2022-10-05T23:14:00.801Z,3.70
2022-10-05T23:19:04.435Z,4.20
2022-10-05T23:24:08.253Z,4.10
2022-10-05T23:29:14.844Z,5.10
2022-10-05T23:34:20.923Z,3.90
2022-10-05T23:39:24.443Z,4.60
2022-10-05T23:44:27.966Z,4.60
2022-10-05T23:49:31.485Z,3.70
2022-10-05T23:54:34.902Z,4.20
2022-10-05T23:59:38.324Z,3.80
